Time;durP1;ratioP1;P1;durP2;ratioP2;P2;SDS_P1;SDS_P2;PMS_P1;PMS_P2;Temp;Humidity;BMP_temperature;BMP_pressure;BME280_temperature;BME280_humidity;BME280_pressure;Samples;Min_cycle;Max_cycle;Signal;HPM_P1;HPM_P2
2024/03/14 00:00:42;;;;;;;15.07;10.50;;;;;;;12.22;100.00;98279.00;4171154;28;20609;-82
2024/03/14 00:02:46;;;;;;;16.40;11.03;;;;;;;12.23;100.00;98279.84;4204514;28;20653;-82
2024/03/14 00:04:50;;;;;;;19.13;11.80;;;;;;;12.21;100.00;98272.13;4169942;28;20625;-81
2024/03/14 00:06:54;;;;;;;16.10;11.33;;;;;;;12.20;100.00;98264.38;4176842;28;20687;-81
2024/03/14 00:09:00;;;;;;;18.77;11.43;;;;;;;12.18;100.00;98269.72;4191937;28;20676;-82
2024/03/14 00:11:05;;;;;;;16.60;11.10;;;;;;;12.16;100.00;98266.38;4190639;28;20837;-82
2024/03/14 00:13:09;;;;;;;19.20;11.10;;;;;;;12.14;100.00;98267.44;4175243;28;20908;-81
2024/03/14 00:15:12;;;;;;;17.00;11.37;;;;;;;12.14;100.00;98262.22;4157516;28;20630;-81
2024/03/14 00:17:18;;;;;;;20.40;14.07;;;;;;;12.12;100.00;98257.09;4170720;28;20636;-82
2024/03/14 00:19:25;;;;;;;27.30;13.07;;;;;;;12.10;100.00;98258.97;4175102;28;20632;-82
2024/03/14 00:21:28;;;;;;;21.63;11.93;;;;;;;12.05;100.00;98261.06;4192929;28;20680;-81
2024/03/14 00:23:32;;;;;;;15.40;10.97;;;;;;;12.02;100.00;98257.84;4189821;28;20693;-81
2024/03/14 00:25:36;;;;;;;15.87;11.87;;;;;;;12.00;100.00;98257.97;4175095;28;20633;-82
2024/03/14 00:27:42;;;;;;;12.20;8.87;;;;;;;11.98;100.00;98261.63;4174900;28;21294;-81
2024/03/14 00:29:46;;;;;;;15.50;9.60;;;;;;;11.97;100.00;98260.78;4188632;28;20686;-81
2024/03/14 00:31:52;;;;;;;12.07;8.93;;;;;;;11.95;100.00;98259.22;4157393;28;20672;-82
2024/03/14 00:33:55;;;;;;;14.83;9.67;;;;;;;11.96;100.00;98263.50;4188583;28;20727;-81
2024/03/14 00:36:01;;;;;;;12.17;8.87;;;;;;;11.95;100.00;98261.84;4156476;28;20617;-81
2024/03/14 00:38:05;;;;;;;11.63;9.00;;;;;;;11.93;100.00;98251.50;4156463;28;21281;-81
2024/03/14 00:40:11;;;;;;;14.00;9.37;;;;;;;11.94;100.00;98253.16;4156041;28;21244;-81
2024/03/14 00:42:13;;;;;;;13.40;9.10;;;;;;;11.94;100.00;98241.88;4187312;28;20620;-81
2024/03/14 00:44:17;;;;;;;12.40;9.90;;;;;;;11.93;100.00;98246.25;4182925;28;20642;-80
2024/03/14 00:46:20;;;;;;;12.33;8.60;;;;;;;11.93;100.00;98240.22;4184420;28;20631;-82
2024/03/14 00:48:23;;;;;;;10.70;8.20;;;;;;;11.93;100.00;98248.06;4170343;28;20729;-81
2024/03/14 00:50:28;;;;;;;12.77;8.70;;;;;;;11.91;100.00;98244.72;4170406;28;21299;-81
2024/03/14 00:52:31;;;;;;;11.77;8.03;;;;;;;11.89;100.00;98241.38;4186330;28;21043;-81
2024/03/14 00:54:34;;;;;;;12.40;7.83;;;;;;;11.85;100.00;98253.00;4170395;28;20620;-81
2024/03/14 00:56:38;;;;;;;16.53;9.00;;;;;;;11.83;100.00;98250.50;4184176;28;20721;-81
2024/03/14 00:58:40;;;;;;;22.00;9.57;;;;;;;11.84;100.00;98241.69;4190347;28;20682;-81
2024/03/14 01:00:43;;;;;;;21.80;9.47;;;;;;;11.84;100.00;98240.88;4184020;28;20726;-86
2024/03/14 01:02:49;;;;;;;18.40;10.40;;;;;;;11.82;100.00;98238.34;4174133;28;21511;-86
2024/03/14 01:04:54;;;;;;;21.13;10.00;;;;;;;11.83;100.00;98240.03;4157443;28;20633;-87
2024/03/14 01:06:57;;;;;;;17.77;10.37;;;;;;;11.84;100.00;98228.63;4157745;28;20756;-87
2024/03/14 01:09:01;;;;;;;15.20;9.73;;;;;;;11.84;100.00;98233.84;4183797;28;20640;-86
2024/03/14 01:11:04;;;;;;;19.53;10.30;;;;;;;11.85;100.00;98237.31;4189460;28;20722;-85
2024/03/14 01:13:07;;;;;;;17.57;10.13;;;;;;;11.84;100.00;98231.22;4190829;28;20646;-86
2024/03/14 01:15:13;;;;;;;18.73;10.47;;;;;;;11.84;100.00;98223.41;4190937;28;20663;-87
2024/03/14 01:17:17;;;;;;;17.60;10.60;;;;;;;11.83;100.00;98228.72;4180273;28;20637;-86
2024/03/14 01:19:21;;;;;;;16.43;9.53;;;;;;;11.82;100.00;98217.44;4172757;28;20632;-87
2024/03/14 01:21:25;;;;;;;19.73;9.50;;;;;;;11.83;100.00;98219.13;4174534;28;20656;-87
2024/03/14 01:23:28;;;;;;;23.57;10.50;;;;;;;11.84;100.00;98214.72;4187678;28;20772;-86
2024/03/14 01:25:32;;;;;;;17.83;9.83;;;;;;;11.83;100.00;98218.28;4176003;28;20628;-88
2024/03/14 01:27:34;;;;;;;16.80;9.97;;;;;;;11.82;100.00;98211.41;4188619;28;20719;-86
2024/03/14 01:29:38;;;;;;;18.30;9.73;;;;;;;11.82;100.00;98209.63;4161062;28;20668;-87
2024/03/14 01:31:41;;;;;;;13.97;10.00;;;;;;;11.82;100.00;98207.00;4176719;28;20656;-85
2024/03/14 01:33:44;;;;;;;14.70;9.77;;;;;;;11.82;100.00;98207.00;4173414;28;21039;-86
2024/03/14 01:35:48;;;;;;;13.03;9.33;;;;;;;11.81;100.00;98210.53;4194838;28;20667;-86
2024/03/14 01:37:51;;;;;;;14.67;8.87;;;;;;;11.83;100.00;98208.69;4173578;28;20640;-85
2024/03/14 01:39:53;;;;;;;12.00;9.60;;;;;;;11.82;100.00;98201.78;4194401;28;20643;-86
2024/03/14 01:41:56;;;;;;;12.23;9.23;;;;;;;11.81;100.00;98209.72;4169290;28;21356;-87
2024/03/14 01:44:00;;;;;;;20.80;10.90;;;;;;;11.77;100.00;98209.13;4176672;28;21207;-87
2024/03/14 01:46:04;;;;;;;16.60;10.37;;;;;;;11.75;100.00;98210.16;4183770;28;21202;-86
2024/03/14 01:48:07;;;;;;;23.00;10.40;;;;;;;11.72;100.00;98206.94;4172434;28;20732;-85
2024/03/14 01:50:11;;;;;;;17.47;10.40;;;;;;;11.73;100.00;98199.00;4173447;28;21018;-87
2024/03/14 01:52:15;;;;;;;14.90;9.23;;;;;;;11.72;100.00;98204.31;4190847;28;20721;-87
2024/03/14 01:54:19;;;;;;;12.00;7.27;;;;;;;11.68;100.00;98197.63;4191994;28;20734;-85
2024/03/14 01:56:22;;;;;;;11.13;8.10;;;;;;;11.65;100.00;98188.25;4174574;28;20639;-86
2024/03/14 01:58:26;;;;;;;13.43;9.23;;;;;;;11.64;100.00;98186.56;4185143;28;20632;-86
2024/03/14 02:00:30;;;;;;;23.70;9.90;;;;;;;11.63;100.00;98184.06;4171657;28;20620;-87
2024/03/14 02:02:35;;;;;;;15.20;8.83;;;;;;;11.63;100.00;98179.69;4170351;28;20630;-85
2024/03/14 02:04:41;;;;;;;17.90;10.10;;;;;;;11.64;100.00;98183.16;4183865;28;20625;-86
2024/03/14 02:06:44;;;;;;;12.70;8.97;;;;;;;11.65;100.00;98182.19;4192371;28;21335;-85
2024/03/14 02:08:48;;;;;;;12.37;8.67;;;;;;;11.66;100.00;98176.03;4193322;28;20622;-85
2024/03/14 02:10:52;;;;;;;11.30;9.03;;;;;;;11.67;100.00;98180.31;4206784;28;20652;-80
2024/03/14 02:12:55;;;;;;;12.37;8.70;;;;;;;11.67;100.00;98182.94;4189377;28;20670;-80
2024/03/14 02:15:01;;;;;;;13.57;9.97;;;;;;;11.68;100.00;98180.19;4173709;28;20659;-80
2024/03/14 02:17:05;;;;;;;14.40;9.50;;;;;;;11.68;100.00;98181.97;4208573;28;21474;-80
2024/03/14 02:19:09;;;;;;;13.50;9.20;;;;;;;11.68;100.00;98177.59;4171157;28;20663;-81
2024/03/14 02:21:12;;;;;;;28.23;10.20;;;;;;;11.70;100.00;98177.44;4184387;28;20617;-80
2024/03/14 02:23:15;;;;;;;23.17;10.53;;;;;;;11.69;100.00;98162.75;4187066;28;20667;-80
2024/03/14 02:25:19;;;;;;;23.50;10.97;;;;;;;11.70;100.00;98174.84;4185726;28;20654;-81
2024/03/14 02:27:23;;;;;;;27.27;10.93;;;;;;;11.71;100.00;98176.53;4190052;28;20628;-80
2024/03/14 02:29:27;;;;;;;19.40;9.67;;;;;;;11.70;100.00;98180.91;4191926;28;20710;-79
2024/03/14 02:31:31;;;;;;;40.43;10.00;;;;;;;11.71;100.00;98176.53;4190104;28;20637;-80
2024/03/14 02:33:34;;;;;;;29.00;10.40;;;;;;;11.70;100.00;98169.63;4188131;28;21263;-80
2024/03/14 02:35:40;;;;;;;19.40;9.63;;;;;;;11.71;100.00;98176.53;4173113;28;21232;-80
2024/03/14 02:37:44;;;;;;;22.50;9.27;;;;;;;11.71;100.00;98171.28;4174921;28;21035;-81
2024/03/14 02:39:47;;;;;;;18.47;8.90;;;;;;;11.70;100.00;98172.22;4158419;28;20626;-80
2024/03/14 02:41:51;;;;;;;26.07;9.43;;;;;;;11.68;100.00;98167.13;4190349;28;20741;-80
2024/03/14 02:43:56;;;;;;;21.60;10.03;;;;;;;11.67;100.00;98172.47;4185219;28;20986;-79
2024/03/14 02:45:59;;;;;;;24.83;10.50;;;;;;;11.67;100.00;98170.69;4186500;28;20635;-80
2024/03/14 02:48:04;;;;;;;26.83;10.60;;;;;;;11.67;100.00;98169.88;4189386;28;21498;-79
2024/03/14 02:50:09;;;;;;;29.87;10.60;;;;;;;11.67;100.00;98173.31;4191101;28;20708;-80
2024/03/14 02:52:15;;;;;;;30.80;10.93;;;;;;;11.68;100.00;98174.13;4188881;28;20640;-80
2024/03/14 02:54:19;;;;;;;38.37;9.53;;;;;;;11.67;100.00;98167.25;4172784;28;20625;-80
2024/03/14 02:56:23;;;;;;;34.03;10.37;;;;;;;11.66;100.00;98169.00;4189772;28;21224;-80
2024/03/14 02:58:26;;;;;;;28.20;9.43;;;;;;;11.67;100.00;98169.88;4172045;28;20643;-80
2024/03/14 03:00:32;;;;;;;34.37;10.77;;;;;;;11.65;100.00;98171.72;4177094;28;20651;-79
2024/03/14 03:02:35;;;;;;;25.47;11.00;;;;;;;11.65;100.00;98171.72;4189559;28;20673;-80
2024/03/14 03:04:38;;;;;;;34.57;10.60;;;;;;;11.65;100.00;98175.19;4190024;28;20620;-80
2024/03/14 03:06:48;;;;;;;36.73;10.27;;;;;;;11.66;100.00;98178.63;4189634;28;20652;-80
2024/03/14 03:08:52;;;;;;;32.33;9.40;;;;;;;11.65;100.00;98174.34;4191095;28;20654;-80
2024/03/14 03:10:56;;;;;;;34.40;11.03;;;;;;;11.64;100.00;98167.47;4186803;28;20618;-80
2024/03/14 03:12:59;;;;;;;32.33;9.37;;;;;;;11.65;100.00;98163.88;4159346;28;21297;-79
2024/03/14 03:15:03;;;;;;;33.23;10.30;;;;;;;11.65;100.00;98166.50;4201679;28;20709;-80
2024/03/14 03:17:07;;;;;;;44.53;10.00;;;;;;;11.64;100.00;98162.25;4157316;28;20633;-81
2024/03/14 03:19:11;;;;;;;46.80;11.00;;;;;;;11.64;100.00;98170.09;4172679;28;20655;-80
2024/03/14 03:21:14;;;;;;;36.47;10.33;;;;;;;11.63;100.00;98163.19;4191507;28;20655;-84
2024/03/14 03:23:18;;;;;;;39.37;10.20;;;;;;;11.63;100.00;98171.00;4187697;28;20619;-85
2024/03/14 03:25:22;;;;;;;28.07;10.27;;;;;;;11.63;100.00;98166.63;4158803;28;20633;-85
2024/03/14 03:27:24;;;;;;;31.73;10.50;;;;;;;11.63;100.00;98171.00;4169794;28;20617;-86
2024/03/14 03:29:28;;;;;;;21.10;10.20;;;;;;;11.64;100.00;98162.25;4185710;28;20696;-85
2024/03/14 03:31:32;;;;;;;15.97;9.77;;;;;;;11.63;100.00;98152.72;4189282;28;20664;-86
2024/03/14 03:33:35;;;;;;;20.37;9.00;;;;;;;11.61;100.00;98154.63;4167354;28;20710;-85
2024/03/14 03:35:37;;;;;;;23.00;9.30;;;;;;;11.59;100.00;98151.25;4170829;28;21231;-86
2024/03/14 03:37:42;;;;;;;27.57;8.97;;;;;;;11.53;100.00;98151.69;4171471;28;21208;-86
2024/03/14 03:39:47;;;;;;;26.53;9.10;;;;;;;11.51;100.00;98153.59;4188451;28;20718;-86
2024/03/14 03:41:50;;;;;;;19.10;9.13;;;;;;;11.49;100.00;98156.31;4171811;28;20624;-85
2024/03/14 03:43:52;;;;;;;31.33;9.33;;;;;;;11.49;100.00;98158.09;4171301;28;20613;-86
2024/03/14 03:45:57;;;;;;;30.10;9.20;;;;;;;11.47;100.00;98157.34;4188153;28;21200;-86
2024/03/14 03:48:00;;;;;;;21.60;8.00;;;;;;;11.43;100.00;98155.91;4175216;28;20650;-86
2024/03/14 03:50:04;;;;;;;31.83;9.77;;;;;;;11.40;100.00;98156.94;4199783;28;21329;-86
2024/03/14 03:52:07;;;;;;;39.63;9.63;;;;;;;11.40;100.00;98156.94;4173615;28;20904;-85
2024/03/14 03:54:10;;;;;;;28.13;8.83;;;;;;;11.39;100.00;98155.25;4182460;28;20656;-85
2024/03/14 03:56:13;;;;;;;34.13;9.00;;;;;;;11.39;100.00;98151.81;4183485;28;21134;-86
2024/03/14 03:58:17;;;;;;;38.17;9.00;;;;;;;11.37;100.00;98154.53;4185889;28;20628;-86
2024/03/14 04:02:43;;;;;;;26.63;8.60;;;;;;;11.36;100.00;98149.41;4172530;28;20646;-85
2024/03/14 04:04:45;;;;;;;23.50;9.00;;;;;;;11.35;100.00;98150.34;4157669;28;20626;-86
2024/03/14 04:06:49;;;;;;;34.37;8.67;;;;;;;11.34;100.00;98151.31;4155466;28;20745;-86
2024/03/14 04:08:52;;;;;;;30.50;8.20;;;;;;;11.33;100.00;98158.28;4187183;28;20638;-86
2024/03/14 04:10:58;;;;;;;31.80;8.20;;;;;;;11.33;100.00;98154.84;4174647;28;21193;-85
2024/03/14 04:13:00;;;;;;;25.70;7.70;;;;;;;11.30;100.00;98155.06;4173538;28;20684;-85
2024/03/14 04:15:06;;;;;;;19.90;7.27;;;;;;;11.26;100.00;98153.63;4152515;28;20629;-83
2024/03/14 04:17:11;;;;;;;17.83;6.90;;;;;;;11.21;100.00;98149.66;4186934;28;20722;-85
2024/03/14 04:19:15;;;;;;;23.43;7.60;;;;;;;11.18;100.00;98145.50;4171945;28;20623;-86
2024/03/14 04:21:19;;;;;;;21.07;7.83;;;;;;;11.17;100.00;98149.06;4190213;28;20652;-86
2024/03/14 04:23:24;;;;;;;29.17;7.90;;;;;;;11.17;100.00;98151.66;4170966;28;20621;-86
2024/03/14 04:25:27;;;;;;;26.20;6.90;;;;;;;11.16;100.00;98157.00;4191165;28;20663;-86
2024/03/14 04:27:31;;;;;;;19.23;6.63;;;;;;;11.15;100.00;98147.50;4186927;28;21286;-86
2024/03/14 04:29:35;;;;;;;12.30;7.03;;;;;;;11.13;100.00;98155.41;4186303;28;20636;-86
2024/03/14 04:31:38;;;;;;;21.30;7.13;;;;;;;11.09;100.00;98140.91;4156692;28;20643;-79
2024/03/14 04:33:41;;;;;;;15.90;7.00;;;;;;;11.05;100.00;98142.09;4179822;28;20759;-79
2024/03/14 04:35:45;;;;;;;16.97;6.53;;;;;;;11.04;100.00;98148.22;4157649;28;20682;-79
2024/03/14 04:37:49;;;;;;;19.53;7.23;;;;;;;11.03;100.00;98146.53;4188989;28;20631;-80
2024/03/14 04:39:53;;;;;;;15.13;6.90;;;;;;;11.03;100.00;98145.72;4172929;28;20648;-80
2024/03/14 04:41:56;;;;;;;21.60;7.30;;;;;;;11.02;100.00;98150.13;4186290;28;20628;-80
2024/03/14 04:44:00;;;;;;;14.90;7.13;;;;;;;10.99;100.00;98139.88;4170435;28;20648;-80
2024/03/14 04:46:04;;;;;;;9.63;6.50;;;;;;;10.98;100.00;98138.22;4166884;28;20636;-80
2024/03/14 04:48:09;;;;;;;9.13;5.80;;;;;;;10.93;100.00;98137.72;4190585;28;20624;-79
2024/03/14 04:50:13;;;;;;;11.10;6.13;;;;;;;10.89;100.00;98135.41;4169570;28;20632;-79
2024/03/14 04:52:16;;;;;;;18.03;6.70;;;;;;;10.87;100.00;98139.91;4189932;28;20616;-80
2024/03/14 04:54:19;;;;;;;9.73;6.30;;;;;;;10.86;100.00;98139.06;4184480;28;20643;-80
2024/03/14 04:56:24;;;;;;;9.33;6.00;;;;;;;10.85;100.00;98137.41;4185152;28;20639;-80
2024/03/14 04:58:27;;;;;;;8.03;6.33;;;;;;;10.85;100.00;98139.16;4187077;28;20663;-80
2024/03/14 05:00:31;;;;;;;7.50;6.07;;;;;;;10.85;100.00;98140.00;4169921;28;20668;-80
2024/03/14 05:02:35;;;;;;;6.60;5.70;;;;;;;10.88;100.00;98136.34;4174060;28;21205;-79
2024/03/14 05:04:41;;;;;;;6.30;5.50;;;;;;;10.89;100.00;98146.66;4173207;28;20682;-80
2024/03/14 05:06:46;;;;;;;6.63;5.30;;;;;;;10.88;100.00;98137.19;4189793;28;20647;-81
2024/03/14 05:08:50;;;;;;;6.53;5.10;;;;;;;10.92;100.00;98141.25;4189751;28;22164;-80
2024/03/14 05:10:53;;;;;;;6.60;5.20;;;;;;;10.95;100.00;98142.81;4168104;28;20683;-79
2024/03/14 05:12:57;;;;;;;6.60;5.60;;;;;;;10.93;100.00;98142.91;4182167;28;20624;-80
2024/03/14 05:15:04;;;;;;;7.50;5.80;;;;;;;10.91;100.00;98150.00;4169194;28;20749;-80
2024/03/14 05:17:08;;;;;;;8.73;5.77;;;;;;;10.87;100.00;98145.94;4176010;28;21024;-80
2024/03/14 05:19:15;;;;;;;7.37;6.17;;;;;;;10.83;100.00;98141.06;4188728;28;20619;-80
2024/03/14 05:21:20;;;;;;;64.43;8.10;;;;;;;10.80;100.00;98135.22;4189271;28;20915;-80
2024/03/14 05:23:24;;;;;;;48.73;7.03;;;;;;;10.74;100.00;98135.63;4188715;28;21439;-81
2024/03/14 05:25:27;;;;;;;16.23;5.80;;;;;;;10.69;100.00;98135.09;4170805;28;20723;-81
2024/03/14 05:27:30;;;;;;;8.67;5.80;;;;;;;10.67;100.00;98132.59;4171172;28;21297;-81
2024/03/14 05:29:34;;;;;;;8.57;6.80;;;;;;;10.66;100.00;98125.72;4187702;28;20635;-81
2024/03/14 05:31:36;;;;;;;6.57;5.53;;;;;;;10.65;100.00;98131.88;4174811;28;20628;-80
2024/03/14 05:33:39;;;;;;;8.30;5.67;;;;;;;10.64;100.00;98127.56;4174597;28;20760;-80
2024/03/14 05:35:42;;;;;;;8.97;6.13;;;;;;;10.63;100.00;98128.53;4191879;28;20632;-80
2024/03/14 05:37:45;;;;;;;25.20;6.73;;;;;;;10.63;100.00;98122.47;4185257;28;20647;-79
2024/03/14 05:39:48;;;;;;;20.77;7.63;;;;;;;10.57;100.00;98120.28;4172232;28;21047;-79
2024/03/14 05:41:52;;;;;;;12.43;7.00;;;;;;;10.56;100.00;98129.06;4168522;28;20628;-83
2024/03/14 05:43:56;;;;;;;17.60;7.43;;;;;;;10.54;100.00;98116.13;4187554;28;20731;-84
2024/03/14 05:46:02;;;;;;;18.17;6.77;;;;;;;10.54;100.00;98123.94;4170919;28;20644;-85
2024/03/14 05:48:11;;;;;;;14.83;8.03;;;;;;;10.53;100.00;98117.03;4186017;28;20631;-86
2024/03/14 05:50:15;;;;;;;11.93;7.00;;;;;;;10.50;100.00;98121.66;4164611;28;21261;-83
2024/03/14 05:52:19;;;;;;;10.43;5.23;;;;;;;10.48;100.00;98113.09;4169302;28;20720;-85
2024/03/14 05:54:23;;;;;;;13.00;4.83;;;;;;;10.45;100.00;98119.34;4170522;28;20667;-86
2024/03/14 05:56:29;;;;;;;18.67;5.90;;;;;;;10.43;100.00;98116.03;4190372;28;20629;-85
2024/03/14 05:58:31;;;;;;;15.00;5.20;;;;;;;10.40;100.00;98115.38;4173778;28;20660;-86
2024/03/14 06:00:35;;;;;;;15.07;6.50;;;;;;;10.38;100.00;98125.91;4172288;28;20630;-86
2024/03/14 06:02:41;;;;;;;9.63;7.13;;;;;;;10.40;100.00;98123.19;4175524;28;21055;-87
2024/03/14 06:04:44;;;;;;;16.37;11.30;;;;;;;10.42;100.00;98122.16;4203570;28;20615;-87
2024/03/14 06:06:48;;;;;;;17.97;12.10;;;;;;;10.45;100.00;98116.75;4174107;28;20718;-87
2024/03/14 06:08:51;;;;;;;11.30;7.63;;;;;;;10.51;100.00;98124.16;4192721;28;21168;-87
2024/03/14 06:10:55;;;;;;;8.80;7.10;;;;;;;10.55;100.00;98128.19;4170886;28;20625;-87
2024/03/14 06:12:58;;;;;;;8.07;6.73;;;;;;;10.59;100.00;98126.25;4176129;28;20632;-87
2024/03/14 06:15:03;;;;;;;10.80;8.60;;;;;;;10.63;100.00;98131.16;4191995;28;20744;-86
2024/03/14 06:17:05;;;;;;;10.37;8.13;;;;;;;10.61;100.00;98132.19;4191498;28;20674;-87
2024/03/14 06:19:09;;;;;;;12.20;8.50;;;;;;;10.58;100.00;98132.38;4195891;28;20632;-87
2024/03/14 06:21:13;;;;;;;9.73;7.03;;;;;;;10.62;100.00;98139.06;4195644;28;21090;-88
2024/03/14 06:23:16;;;;;;;9.30;7.10;;;;;;;10.63;100.00;98135.50;4177716;28;20624;-88
2024/03/14 06:25:19;;;;;;;10.40;8.07;;;;;;;10.65;100.00;98133.66;4194358;28;21116;-85
2024/03/14 06:27:24;;;;;;;10.33;8.20;;;;;;;10.69;100.00;98143.78;4174568;28;20740;-86
2024/03/14 06:29:27;;;;;;;12.40;7.80;;;;;;;10.73;100.00;98141.78;4190232;28;20647;-85
2024/03/14 06:31:32;;;;;;;9.33;7.50;;;;;;;10.76;100.00;98150.22;4175371;28;20682;-84
2024/03/14 06:33:35;;;;;;;9.53;7.40;;;;;;;10.78;100.00;98144.91;4192756;28;20619;-87
2024/03/14 06:35:40;;;;;;;9.13;7.37;;;;;;;10.80;100.00;98145.66;4178729;28;21265;-85
2024/03/14 06:37:42;;;;;;;9.87;8.07;;;;;;;10.79;100.00;98149.19;4172947;28;20661;-85
2024/03/14 06:39:46;;;;;;;9.37;7.30;;;;;;;10.78;100.00;98140.53;4175155;28;20758;-85
2024/03/14 06:41:49;;;;;;;9.43;7.53;;;;;;;10.83;100.00;98149.69;4195172;28;20644;-85
2024/03/14 06:43:53;;;;;;;8.57;7.40;;;;;;;10.87;100.00;98147.75;4164286;28;20625;-85
2024/03/14 06:45:56;;;;;;;9.53;7.80;;;;;;;10.91;100.00;98150.00;4171275;28;20645;-86
2024/03/14 06:47:59;;;;;;;8.80;7.33;;;;;;;10.98;100.00;98160.88;4158838;28;20653;-86
2024/03/14 06:50:03;;;;;;;9.10;7.53;;;;;;;11.05;100.00;98159.50;4192118;28;20764;-80
2024/03/14 06:52:09;;;;;;;9.90;7.37;;;;;;;11.09;100.00;98159.19;4157756;28;20660;-86
2024/03/14 06:54:13;;;;;;;9.17;7.27;;;;;;;11.16;100.00;98162.22;4180701;28;20658;-86
2024/03/14 06:56:17;;;;;;;8.30;7.10;;;;;;;11.19;100.00;98157.59;4168944;28;20624;-85
2024/03/14 06:58:21;;;;;;;11.50;8.73;;;;;;;11.25;100.00;98167.63;4161809;28;21066;-85
2024/03/14 07:00:25;;;;;;;10.93;7.70;;;;;;;11.31;100.00;98165.41;4158588;28;20688;-85
2024/03/14 07:02:29;;;;;;;10.60;8.77;;;;;;;11.36;100.00;98167.69;4193055;28;21170;-85
2024/03/14 07:04:34;;;;;;;8.33;6.60;;;;;;;11.42;100.00;98175.94;4186244;28;20655;-85
2024/03/14 07:06:38;;;;;;;8.23;6.90;;;;;;;11.47;100.00;98178.25;4190547;28;20690;-84
2024/03/14 07:08:43;;;;;;;8.80;6.80;;;;;;;11.50;100.00;98176.28;4174418;28;20632;-86
2024/03/14 07:10:49;;;;;;;8.10;7.20;;;;;;;11.54;100.00;98176.88;4159967;28;20622;-85
2024/03/14 07:12:52;;;;;;;8.43;6.50;;;;;;;11.57;100.00;98171.44;4169927;28;20723;-86
2024/03/14 07:14:54;;;;;;;8.93;7.50;;;;;;;11.61;100.00;98170.28;4175707;28;21275;-86
2024/03/14 07:16:57;;;;;;;9.73;7.03;;;;;;;11.64;100.00;98168.28;4159320;28;21233;-86
2024/03/14 07:19:01;;;;;;;7.77;6.80;;;;;;;11.67;100.00;98172.47;4188613;28;20624;-86
2024/03/14 07:21:04;;;;;;;9.10;6.97;;;;;;;11.70;100.00;98175.69;4177170;28;20632;-85
2024/03/14 07:23:08;;;;;;;8.27;6.70;;;;;;;11.74;100.00;98171.06;4174343;28;21539;-86
2024/03/14 07:25:13;;;;;;;8.90;7.30;;;;;;;11.78;100.00;98176.78;4175965;28;20704;-84
2024/03/14 07:27:17;;;;;;;8.00;6.70;;;;;;;11.81;100.00;98173.13;4174286;28;20631;-86
2024/03/14 07:29:22;;;;;;;9.90;7.70;;;;;;;11.84;100.00;98165.91;4175679;28;20631;-85
2024/03/14 07:31:28;;;;;;;8.47;7.03;;;;;;;11.89;100.00;98176.03;4205658;28;20634;-86
2024/03/14 07:33:35;;;;;;;8.20;6.90;;;;;;;11.92;100.00;98171.44;4176300;28;20624;-85
2024/03/14 07:35:44;;;;;;;7.97;6.90;;;;;;;11.95;100.00;98168.59;4159185;28;20711;-85
2024/03/14 07:37:48;;;;;;;7.63;6.80;;;;;;;11.90;99.12;98162.84;4196857;28;20750;-86
2024/03/14 07:39:52;;;;;;;9.10;7.60;;;;;;;11.87;100.00;98163.06;4175322;28;24816;-82
2024/03/14 07:41:55;;;;;;;10.40;7.37;;;;;;;11.81;99.01;98158.28;4186266;28;20687;-86
2024/03/14 07:44:00;;;;;;;9.97;8.57;;;;;;;11.78;99.25;98150.66;4173812;28;20716;-83
2024/03/14 07:46:23;;;;;;;9.90;8.20;;;;;;;11.80;99.76;98150.56;4182307;28;20699;-85
2024/03/14 07:48:27;;;;;;;11.67;9.23;;;;;;;11.77;98.98;98150.78;4191773;28;20659;-85
2024/03/14 07:50:31;;;;;;;10.60;8.40;;;;;;;11.81;100.00;98155.66;4160149;28;20636;-85
2024/03/14 07:52:33;;;;;;;10.20;8.70;;;;;;;11.82;98.67;98157.34;4155256;28;20702;-83
2024/03/14 07:54:38;;;;;;;9.63;7.73;;;;;;;11.89;99.96;98163.81;4187882;28;20623;-85
2024/03/14 07:56:42;;;;;;;10.40;8.50;;;;;;;11.98;100.00;98167.53;4173132;28;20656;-85
2024/03/14 07:58:46;;;;;;;10.30;8.67;;;;;;;12.04;100.00;98167.94;4172910;28;20932;-85
2024/03/14 08:00:50;;;;;;;9.50;8.40;;;;;;;12.15;98.99;98174.97;4157785;28;20713;-85
2024/03/14 08:02:57;;;;;;;10.40;8.27;;;;;;;12.23;98.70;98176.09;4164295;28;21259;-86
2024/03/14 08:05:02;;;;;;;10.03;8.30;;;;;;;12.28;99.29;98181.81;4189521;28;20637;-85
2024/03/14 08:07:13;;;;;;;9.70;7.67;;;;;;;12.36;99.68;98182.09;4175916;28;20743;-85
2024/03/14 08:09:19;;;;;;;10.93;8.63;;;;;;;12.47;99.89;98182.94;4171937;28;20643;-85
2024/03/14 08:11:25;;;;;;;9.90;8.07;;;;;;;12.57;99.72;98185.69;4175566;28;20628;-86
2024/03/14 08:13:31;;;;;;;10.70;8.30;;;;;;;12.62;98.86;98181.81;4176898;28;20636;-86
2024/03/14 08:15:36;;;;;;;9.93;8.23;;;;;;;12.69;98.07;98181.22;4184776;28;21022;-86
2024/03/14 08:17:40;;;;;;;10.90;8.20;;;;;;;12.76;97.62;98181.59;4171251;28;20627;-84
2024/03/14 08:19:45;;;;;;;10.30;8.27;;;;;;;12.79;97.44;98182.22;4192429;28;20766;-85
2024/03/14 08:21:49;;;;;;;8.00;7.13;;;;;;;12.88;96.84;98186.75;4175240;28;20617;-86
2024/03/14 08:23:53;;;;;;;10.07;8.07;;;;;;;13.03;96.59;98188.22;4188646;28;20644;-85
2024/03/14 08:25:57;;;;;;;9.07;6.90;;;;;;;13.19;95.92;98197.41;4171139;28;20610;-84
2024/03/14 08:28:01;;;;;;;8.60;7.40;;;;;;;13.32;94.78;98192.03;4169151;28;20621;-85
2024/03/14 08:30:10;;;;;;;9.10;6.90;;;;;;;13.45;95.13;98190.16;4158924;28;20706;-85
2024/03/14 08:32:15;;;;;;;8.20;6.87;;;;;;;13.57;93.80;98199.66;4176392;28;20633;-85
2024/03/14 08:34:17;;;;;;;8.23;6.90;;;;;;;13.65;94.54;98196.34;4186894;28;20639;-83
2024/03/14 08:36:20;;;;;;;9.57;8.07;;;;;;;13.77;94.90;98197.97;4158288;28;21082;-84
2024/03/14 08:38:23;;;;;;;8.30;7.13;;;;;;;13.87;93.29;98191.03;4190555;28;20646;-85
2024/03/14 08:40:26;;;;;;;9.40;7.07;;;;;;;13.97;94.24;98191.97;4175017;28;20958;-85
2024/03/14 08:42:31;;;;;;;8.07;7.27;;;;;;;14.09;92.60;98185.78;4171185;28;20634;-84
2024/03/14 08:44:50;;;;;;;8.60;7.03;;;;;;;14.23;93.19;98198.59;4174378;28;20729;-84
2024/03/14 08:46:53;;;;;;;8.77;6.73;;;;;;;14.35;94.16;98193.19;4157661;28;20655;-85
2024/03/14 08:48:56;;;;;;;8.33;6.80;;;;;;;14.44;91.27;98191.63;4158325;28;20634;-84
2024/03/14 08:51:00;;;;;;;6.40;5.00;;;;;;;14.50;91.90;98191.94;4159369;28;20618;-85
2024/03/14 08:53:02;;;;;;;7.90;6.33;;;;;;;14.62;89.76;98191.75;4175503;28;20697;-86
2024/03/14 08:55:23;;;;;;;8.17;6.07;;;;;;;14.68;88.78;98187.78;4188123;28;21232;-85
2024/03/14 08:57:27;;;;;;;8.47;5.50;;;;;;;14.82;92.00;98188.28;4192426;28;20616;-85
2024/03/14 08:59:35;;;;;;;7.00;5.53;;;;;;;14.94;89.07;98192.53;4201804;28;21371;-87
2024/03/14 09:01:39;;;;;;;7.10;5.80;;;;;;;15.02;89.07;98178.75;4174185;28;20663;-89
2024/03/14 09:03:46;;;;;;;6.70;5.83;;;;;;;15.08;86.34;98181.72;4173370;28;20638;-86
2024/03/14 09:05:50;;;;;;;7.77;6.07;;;;;;;15.22;87.93;98181.38;4167347;28;20672;-85
2024/03/14 09:07:54;;;;;;;8.10;6.00;;;;;;;15.36;88.32;98179.22;4188855;28;20625;-85
2024/03/14 09:09:56;;;;;;;9.03;6.03;;;;;;;15.47;86.63;98179.16;4174105;28;20728;-85
2024/03/14 09:12:09;;;;;;;6.83;6.10;;;;;;;15.61;87.40;98176.97;4157694;28;20727;-79
2024/03/14 09:14:16;;;;;;;8.33;5.60;;;;;;;15.69;84.85;98182.41;4189925;28;20618;-80
2024/03/14 09:16:21;;;;;;;6.53;5.70;;;;;;;15.69;83.97;98182.41;4171849;28;20664;-80
2024/03/14 09:18:26;;;;;;;5.63;5.03;;;;;;;15.72;84.59;98176.03;4169928;28;20710;-81
2024/03/14 09:20:31;;;;;;;6.13;5.30;;;;;;;15.73;83.54;98173.28;4189478;28;20657;-81
2024/03/14 09:22:34;;;;;;;7.30;5.60;;;;;;;15.85;86.03;98166.13;4182646;28;20666;-79
2024/03/14 09:24:39;;;;;;;6.50;5.73;;;;;;;15.86;83.77;98167.78;4205163;28;21013;-79
2024/03/14 09:26:43;;;;;;;6.40;5.50;;;;;;;15.87;85.54;98166.81;4189680;28;20619;-79
2024/03/14 09:28:47;;;;;;;6.83;5.93;;;;;;;15.93;85.04;98167.09;4178642;28;20631;-80
2024/03/14 09:30:57;;;;;;;7.70;6.13;;;;;;;15.90;84.83;98163.91;4191526;28;20622;-79
2024/03/14 09:33:03;;;;;;;7.30;6.50;;;;;;;15.86;84.06;98163.38;4181102;28;20624;-79
2024/03/14 09:35:11;;;;;;;10.03;7.50;;;;;;;15.79;83.92;98156.97;4173051;28;20638;-79